Time;durP1;ratioP1;P1;durP2;ratioP2;P2;SDS_P1;SDS_P2;PMS_P1;PMS_P2;Temp;Humidity;BMP_temperature;BMP_pressure;BME280_temperature;BME280_humidity;BME280_pressure;Samples;Min_cycle;Max_cycle;Signal;HPM_P1;HPM_P2
2023/07/24 00:02:07;;;;;;;9.67;7.90;;;;;;;;;;4993563;28;20527;-55
2023/07/24 00:04:34;;;;;;;10.03;8.67;;;;;;;;;;4993398;28;20511;-55
2023/07/24 00:07:01;;;;;;;11.87;8.00;;;;;;;;;;4993786;28;20530;-55
2023/07/24 00:09:30;;;;;;;10.47;7.27;;;;;;;;;;4992821;28;21008;-56
2023/07/24 00:11:57;;;;;;;9.37;7.47;;;;;;;;;;4992683;28;20538;-55
2023/07/24 00:14:25;;;;;;;9.97;7.00;;;;;;;;;;4993471;28;20547;-56
2023/07/24 00:16:52;;;;;;;11.73;7.40;;;;;;;;;;4992544;28;20484;-56
2023/07/24 00:19:19;;;;;;;11.57;7.50;;;;;;;;;;4992957;28;20476;-54
2023/07/24 00:21:46;;;;;;;9.03;7.17;;;;;;;;;;4992910;28;20874;-56
2023/07/24 00:24:14;;;;;;;10.30;8.17;;;;;;;;;;4992170;28;21053;-56
2023/07/24 00:26:42;;;;;;;10.43;7.93;;;;;;;;;;4992936;28;20939;-56
2023/07/24 00:29:09;;;;;;;9.87;7.30;;;;;;;;;;4992264;28;20597;-55
2023/07/24 00:31:37;;;;;;;11.23;8.30;;;;;;;;;;4992703;28;20563;-55
2023/07/24 00:34:04;;;;;;;11.00;8.70;;;;;;;;;;4992582;28;20539;-55
2023/07/24 00:36:31;;;;;;;10.57;8.30;;;;;;;;;;4992394;28;20966;-55
2023/07/24 00:38:58;;;;;;;9.20;7.43;;;;;;;;;;4992380;28;20546;-56
2023/07/24 00:41:26;;;;;;;10.63;7.40;;;;;;;;;;4992624;28;20863;-55
2023/07/24 00:43:54;;;;;;;10.90;8.10;;;;;;;;;;4992600;28;21038;-55
2023/07/24 00:46:22;;;;;;;11.97;8.70;;;;;;;;;;4992519;28;20538;-55
2023/07/24 00:48:49;;;;;;;11.87;8.77;;;;;;;;;;4992032;28;20444;-55
2023/07/24 00:51:16;;;;;;;8.40;6.93;;;;;;;;;;4983517;28;20480;-55
2023/07/24 00:53:43;;;;;;;10.87;7.90;;;;;;;;;;4992122;28;20547;-56
2023/07/24 00:56:11;;;;;;;9.47;7.70;;;;;;;;;;4992594;28;20852;-56
2023/07/24 00:58:39;;;;;;;9.67;7.50;;;;;;;;;;4992069;28;20535;-56
2023/07/24 01:01:08;;;;;;;12.67;8.80;;;;;;;;;;4991991;28;20528;-55
2023/07/24 01:03:36;;;;;;;12.30;8.73;;;;;;;;;;4992030;28;20480;-55
2023/07/24 01:06:04;;;;;;;11.60;8.80;;;;;;;;;;4992051;28;21022;-56
2023/07/24 01:08:31;;;;;;;10.07;8.10;;;;;;;;;;4991889;28;21036;-55
2023/07/24 01:11:02;;;;;;;9.57;7.77;;;;;;;;;;4991351;28;20448;-55
2023/07/24 01:13:31;;;;;;;11.80;8.00;;;;;;;;;;4991809;28;20495;-55
2023/07/24 01:16:02;;;;;;;9.73;7.93;;;;;;;;;;4992361;28;20531;-55
2023/07/24 01:18:31;;;;;;;10.57;8.13;;;;;;;;;;4991625;28;20549;-56
2023/07/24 01:21:00;;;;;;;11.30;7.90;;;;;;;;;;4991517;28;20538;-56
2023/07/24 01:23:39;;;;;;;8.50;6.90;;;;;;;;;;4991382;28;20575;-55
2023/07/24 01:26:08;;;;;;;13.80;8.30;;;;;;;;;;4991565;28;20466;-55
2023/07/24 01:28:35;;;;;;;11.67;7.93;;;;;;;;;;4990963;28;20475;-56
2023/07/24 01:31:03;;;;;;;12.00;8.73;;;;;;;;;;4991748;28;20531;-56
2023/07/24 01:33:31;;;;;;;12.20;8.73;;;;;;;;;;4990763;28;20953;-56
2023/07/24 01:36:01;;;;;;;10.33;8.07;;;;;;;;;;4991710;28;20455;-55
2023/07/24 01:38:28;;;;;;;9.93;8.33;;;;;;;;;;4990744;28;20476;-56
2023/07/24 01:40:56;;;;;;;11.60;8.10;;;;;;;;;;4991086;28;20555;-55
2023/07/24 01:43:27;;;;;;;10.97;9.30;;;;;;;;;;4991355;28;20554;-55
2023/07/24 01:45:54;;;;;;;10.20;7.33;;;;;;;;;;4991781;28;20668;-55
2023/07/24 01:48:21;;;;;;;11.10;8.67;;;;;;;;;;4991206;28;20831;-55
2023/07/24 01:50:48;;;;;;;10.80;7.83;;;;;;;;;;4991300;28;20538;-55
2023/07/24 01:53:16;;;;;;;11.50;9.33;;;;;;;;;;4990661;28;20504;-55
2023/07/24 01:55:43;;;;;;;9.20;7.10;;;;;;;;;;4991456;28;20476;-54
2023/07/24 01:58:10;;;;;;;10.47;8.43;;;;;;;;;;4991274;28;21017;-55
2023/07/24 02:00:39;;;;;;;10.47;7.90;;;;;;;;;;4991069;28;20534;-55
2023/07/24 02:03:06;;;;;;;11.93;8.27;;;;;;;;;;4991041;28;20551;-55
2023/07/24 02:05:34;;;;;;;11.33;9.10;;;;;;;;;;4991042;28;20564;-56
2023/07/24 02:08:01;;;;;;;12.73;8.30;;;;;;;;;;4990756;28;20448;-55
2023/07/24 02:10:28;;;;;;;11.60;9.03;;;;;;;;;;4990466;28;20476;-55
2023/07/24 02:12:55;;;;;;;10.27;8.27;;;;;;;;;;4991064;28;20558;-55
2023/07/24 02:15:23;;;;;;;9.63;8.17;;;;;;;;;;4991080;28;20538;-55
2023/07/24 02:17:51;;;;;;;12.07;9.10;;;;;;;;;;4990758;28;20531;-55
2023/07/24 02:20:19;;;;;;;11.73;8.60;;;;;;;;;;4990420;28;20535;-54
2023/07/24 02:22:46;;;;;;;10.40;8.23;;;;;;;;;;4990477;28;20555;-55
2023/07/24 02:25:13;;;;;;;9.60;8.03;;;;;;;;;;4990557;28;20563;-55
2023/07/24 02:27:40;;;;;;;11.57;8.90;;;;;;;;;;4990613;28;20539;-55
2023/07/24 02:30:08;;;;;;;10.63;8.47;;;;;;;;;;4990422;28;20522;-55
2023/07/24 02:32:35;;;;;;;12.43;9.47;;;;;;;;;;4989789;28;20555;-56
2023/07/24 02:35:04;;;;;;;10.40;8.57;;;;;;;;;;4990764;28;20891;-55
2023/07/24 02:37:31;;;;;;;8.87;7.73;;;;;;;;;;4990541;28;21019;-56
2023/07/24 02:39:59;;;;;;;11.47;8.63;;;;;;;;;;4990333;28;20471;-56
2023/07/24 02:42:26;;;;;;;11.43;9.00;;;;;;;;;;4990361;28;20539;-55
2023/07/24 02:44:53;;;;;;;10.93;8.10;;;;;;;;;;4989999;28;20547;-56
2023/07/24 02:47:20;;;;;;;10.20;8.37;;;;;;;;;;4990849;28;20510;-55
2023/07/24 02:49:48;;;;;;;9.70;8.47;;;;;;;;;;4990147;28;21000;-55
2023/07/24 02:52:16;;;;;;;15.17;8.93;;;;;;;;;;4990439;28;20484;-55
2023/07/24 02:54:43;;;;;;;14.70;10.10;;;;;;;;;;4989609;28;20476;-55
2023/07/24 02:57:11;;;;;;;11.47;9.40;;;;;;;;;;4990827;28;20535;-55
2023/07/24 02:59:38;;;;;;;11.67;8.90;;;;;;;;;;4990181;28;20500;-55
2023/07/24 03:02:05;;;;;;;11.33;8.20;;;;;;;;;;4994134;28;20475;-54
2023/07/24 03:04:33;;;;;;;12.57;9.67;;;;;;;;;;4994214;28;20562;-55
2023/07/24 03:07:00;;;;;;;13.30;8.47;;;;;;;;;;4994055;28;20502;-55
2023/07/24 03:09:28;;;;;;;11.40;8.00;;;;;;;;;;4993741;28;20540;-56
2023/07/24 03:11:56;;;;;;;12.23;8.90;;;;;;;;;;4993629;28;20479;-55
2023/07/24 03:14:23;;;;;;;12.27;9.03;;;;;;;;;;4994398;28;20547;-55
2023/07/24 03:16:50;;;;;;;12.83;9.50;;;;;;;;;;4994593;28;20527;-55
2023/07/24 03:19:19;;;;;;;10.80;9.07;;;;;;;;;;4994039;28;20534;-55
2023/07/24 03:21:47;;;;;;;10.73;8.87;;;;;;;;;;4994426;28;20506;-55
2023/07/24 03:24:14;;;;;;;12.50;9.07;;;;;;;;;;4993437;28;20515;-55
2023/07/24 03:26:42;;;;;;;11.80;9.10;;;;;;;;;;4994203;28;20503;-55
2023/07/24 03:29:10;;;;;;;13.13;9.60;;;;;;;;;;4993520;28;20448;-55
2023/07/24 03:31:37;;;;;;;16.03;9.37;;;;;;;;;;4994223;28;20530;-55
2023/07/24 03:34:04;;;;;;;12.83;10.47;;;;;;;;;;4993461;28;20552;-55
2023/07/24 03:36:31;;;;;;;13.10;9.97;;;;;;;;;;4994042;28;20526;-55
2023/07/24 03:38:59;;;;;;;10.73;9.03;;;;;;;;;;4993777;28;20447;-55
2023/07/24 03:41:26;;;;;;;11.07;8.90;;;;;;;;;;4993333;28;20479;-55
2023/07/24 03:43:54;;;;;;;12.40;9.87;;;;;;;;;;4993709;28;20539;-55
2023/07/24 03:46:22;;;;;;;15.87;9.53;;;;;;;;;;4994053;28;20506;-55
2023/07/24 03:48:50;;;;;;;16.63;10.77;;;;;;;;;;4993039;28;20451;-54
2023/07/24 03:51:17;;;;;;;13.27;10.10;;;;;;;;;;4992879;28;20518;-53
2023/07/24 03:53:44;;;;;;;11.20;9.30;;;;;;;;;;4991971;28;20562;-55
2023/07/24 03:56:12;;;;;;;11.33;9.10;;;;;;;;;;4993514;28;20471;-55
2023/07/24 03:58:39;;;;;;;12.13;8.83;;;;;;;;;;4993616;28;20448;-55
2023/07/24 04:01:08;;;;;;;13.10;9.83;;;;;;;;;;4993386;28;20828;-55
2023/07/24 04:03:35;;;;;;;12.13;9.10;;;;;;;;;;4993059;28;21025;-55
2023/07/24 04:06:03;;;;;;;12.00;8.90;;;;;;;;;;4993514;28;20511;-56
2023/07/24 04:08:30;;;;;;;11.77;9.50;;;;;;;;;;4993181;28;20538;-55
2023/07/24 04:10:57;;;;;;;11.20;8.37;;;;;;;;;;4992622;28;20476;-55
2023/07/24 04:13:24;;;;;;;11.97;8.80;;;;;;;;;;4993145;28;20500;-55
2023/07/24 04:15:52;;;;;;;12.80;10.10;;;;;;;;;;4993144;28;20448;-56
2023/07/24 04:18:20;;;;;;;10.97;9.67;;;;;;;;;;4992959;28;20480;-55
2023/07/24 04:20:47;;;;;;;13.60;9.30;;;;;;;;;;4993201;28;20880;-55
2023/07/24 04:23:15;;;;;;;11.83;9.60;;;;;;;;;;4992767;28;20499;-55
2023/07/24 04:25:42;;;;;;;13.47;10.10;;;;;;;;;;4993025;28;20561;-56
2023/07/24 04:28:09;;;;;;;12.33;9.83;;;;;;;;;;4993094;28;20683;-55
2023/07/24 04:30:36;;;;;;;12.27;9.10;;;;;;;;;;4993106;28;20863;-55
2023/07/24 04:33:04;;;;;;;18.03;10.20;;;;;;;;;;4992394;28;20547;-55
2023/07/24 04:35:33;;;;;;;13.30;10.40;;;;;;;;;;4992812;28;21035;-55
2023/07/24 04:38:00;;;;;;;12.33;10.13;;;;;;;;;;4992426;28;20452;-53
2023/07/24 04:40:28;;;;;;;11.43;9.43;;;;;;;;;;4992763;28;20539;-54
2023/07/24 04:42:55;;;;;;;13.10;10.20;;;;;;;;;;4991945;28;20522;-55
2023/07/24 04:45:22;;;;;;;10.30;9.07;;;;;;;;;;4992413;28;21082;-55
2023/07/24 04:47:49;;;;;;;10.93;9.00;;;;;;;;;;4992252;28;20531;-55
2023/07/24 04:50:17;;;;;;;11.23;8.80;;;;;;;;;;4991619;28;20533;-55
2023/07/24 04:52:45;;;;;;;11.20;9.83;;;;;;;;;;4992045;28;20908;-55
2023/07/24 04:55:12;;;;;;;11.93;8.80;;;;;;;;;;4992154;28;20468;-55
2023/07/24 04:57:40;;;;;;;11.27;9.20;;;;;;;;;;4991675;28;20870;-55
2023/07/24 05:00:08;;;;;;;13.00;10.47;;;;;;;;;;4991089;28;20475;-55
2023/07/24 05:02:35;;;;;;;10.80;8.90;;;;;;;;;;4991590;28;20468;-55
2023/07/24 05:05:02;;;;;;;12.00;9.80;;;;;;;;;;4991797;28;21023;-55
2023/07/24 05:07:29;;;;;;;12.97;10.40;;;;;;;;;;4991840;28;20471;-56
2023/07/24 05:09:58;;;;;;;10.30;9.20;;;;;;;;;;4991301;28;20890;-55
2023/07/24 05:12:25;;;;;;;14.00;10.20;;;;;;;;;;4990947;28;20535;-54
2023/07/24 05:14:52;;;;;;;13.20;10.20;;;;;;;;;;4991993;28;20532;-55
2023/07/24 05:17:20;;;;;;;15.93;10.30;;;;;;;;;;4991587;28;20531;-55
2023/07/24 05:19:47;;;;;;;13.10;9.97;;;;;;;;;;4991369;28;20535;-55
2023/07/24 05:22:14;;;;;;;14.13;10.30;;;;;;;;;;4991115;28;20491;-55
2023/07/24 05:24:41;;;;;;;12.10;10.17;;;;;;;;;;5080271;23;20539;-56
2023/07/24 05:27:12;;;;;;;11.10;9.50;;;;;;;;;;5030690;28;20532;-57
2023/07/24 05:29:39;;;;;;;9.83;8.83;;;;;;;;;;5029906;28;21042;-57
2023/07/24 05:32:07;;;;;;;9.83;8.80;;;;;;;;;;5030476;28;20809;-59
2023/07/24 05:34:34;;;;;;;14.73;10.67;;;;;;;;;;5030364;28;20498;-55
2023/07/24 05:37:01;;;;;;;13.13;9.87;;;;;;;;;;5030845;28;20533;-55
2023/07/24 05:39:28;;;;;;;12.50;9.53;;;;;;;;;;5030995;28;20474;-57
2023/07/24 05:41:55;;;;;;;13.53;11.00;;;;;;;;;;5030010;28;20567;-55
2023/07/24 05:44:24;;;;;;;16.03;10.07;;;;;;;;;;5029951;28;20553;-59
2023/07/24 05:46:51;;;;;;;12.00;10.50;;;;;;;;;;5029350;28;20616;-57
2023/07/24 05:49:18;;;;;;;14.83;11.20;;;;;;;;;;5026802;28;21005;-54
2023/07/24 05:51:46;;;;;;;12.50;10.47;;;;;;;;;;5029480;28;20521;-58
2023/07/24 05:54:13;;;;;;;16.27;11.33;;;;;;;;;;5029595;28;21041;-55
2023/07/24 05:56:40;;;;;;;16.23;10.67;;;;;;;;;;5028584;28;20483;-59
2023/07/24 05:59:07;;;;;;;12.60;10.63;;;;;;;;;;5022576;28;20555;-59
2023/07/24 06:01:36;;;;;;;14.90;10.23;;;;;;;;;;5025565;28;20954;-57
2023/07/24 06:04:03;;;;;;;17.77;10.47;;;;;;;;;;5028802;28;21001;-56
2023/07/24 06:06:31;;;;;;;16.73;10.97;;;;;;;;;;5030090;28;20474;-55
2023/07/24 06:08:58;;;;;;;19.40;12.97;;;;;;;;;;5029223;28;20446;-59
2023/07/24 06:11:26;;;;;;;12.50;11.20;;;;;;;;;;5028711;28;20526;-57
2023/07/24 06:13:53;;;;;;;13.87;11.00;;;;;;;;;;5029987;28;20498;-56
2023/07/24 06:16:20;;;;;;;12.60;11.00;;;;;;;;;;5030460;28;20445;-58
2023/07/24 06:18:49;;;;;;;17.30;12.43;;;;;;;;;;5029272;28;20470;-57
2023/07/24 06:21:16;;;;;;;14.00;11.20;;;;;;;;;;5030341;28;20485;-59
2023/07/24 06:23:44;;;;;;;19.00;12.67;;;;;;;;;;5030294;28;20553;-57
2023/07/24 06:26:11;;;;;;;11.80;9.47;;;;;;;;;;5029081;28;20560;-57
2023/07/24 06:28:38;;;;;;;12.03;9.80;;;;;;;;;;5010526;28;20525;-55
2023/07/24 06:31:05;;;;;;;11.37;9.70;;;;;;;;;;5027512;28;20481;-55
2023/07/24 06:33:32;;;;;;;13.57;11.60;;;;;;;;;;5029712;28;21037;-54
2023/07/24 06:36:01;;;;;;;14.20;10.87;;;;;;;;;;5029617;28;20492;-56
2023/07/24 06:38:28;;;;;;;14.13;11.27;;;;;;;;;;5030341;28;20529;-55
2023/07/24 06:40:56;;;;;;;12.13;10.07;;;;;;;;;;5030473;28;20530;-57
2023/07/24 06:43:23;;;;;;;13.27;10.70;;;;;;;;;;5026683;28;20506;-57
2023/07/24 06:45:50;;;;;;;12.50;11.00;;;;;;;;;;5029715;28;20477;-55
2023/07/24 06:48:17;;;;;;;13.27;10.60;;;;;;;;;;5024330;28;21022;-58
2023/07/24 06:50:45;;;;;;;13.97;10.67;;;;;;;;;;5026345;28;20478;-54
2023/07/24 06:53:13;;;;;;;15.33;11.57;;;;;;;;;;5029885;28;20553;-58
2023/07/24 06:55:40;;;;;;;14.30;9.90;;;;;;;;;;5028613;28;20568;-57
2023/07/24 06:58:08;;;;;;;13.80;10.50;;;;;;;;;;5029427;28;20445;-56
2023/07/24 07:00:35;;;;;;;13.87;9.50;;;;;;;;;;5027539;28;21012;-57
2023/07/24 07:03:02;;;;;;;10.93;9.43;;;;;;;;;;5027248;28;20516;-57
2023/07/24 07:05:29;;;;;;;16.00;10.90;;;;;;;;;;5027028;28;20506;-58
2023/07/24 07:07:57;;;;;;;19.27;12.20;;;;;;;;;;5027079;28;20643;-56
2023/07/24 07:10:25;;;;;;;14.17;11.30;;;;;;;;;;5028599;28;20538;-58
2023/07/24 07:12:52;;;;;;;13.90;10.03;;;;;;;;;;5025164;28;20553;-59
2023/07/24 07:15:20;;;;;;;13.33;11.23;;;;;;;;;;5029518;28;20529;-58
2023/07/24 07:17:47;;;;;;;11.23;10.13;;;;;;;;;;5029545;28;20517;-58
2023/07/24 07:20:14;;;;;;;13.80;11.10;;;;;;;;;;5024796;28;20548;-58
2023/07/24 07:22:41;;;;;;;14.67;11.00;;;;;;;;;;5025004;28;20521;-58
2023/07/24 07:25:09;;;;;;;15.40;10.87;;;;;;;;;;5028305;28;21020;-58
2023/07/24 07:27:37;;;;;;;14.57;10.50;;;;;;;;;;5027664;28;20545;-58
2023/07/24 07:30:05;;;;;;;13.60;11.80;;;;;;;;;;5034151;28;20486;-58
2023/07/24 07:32:33;;;;;;;15.20;11.17;;;;;;;;;;5024097;28;20442;-59
2023/07/24 07:35:00;;;;;;;12.03;10.70;;;;;;;;;;5029012;28;20791;-56
2023/07/24 07:37:27;;;;;;;14.50;10.37;;;;;;;;;;5026187;28;20541;-60
2023/07/24 07:39:54;;;;;;;13.77;11.33;;;;;;;;;;5025152;28;20466;-58
2023/07/24 07:42:22;;;;;;;14.30;11.83;;;;;;;;;;5025015;28;20923;-59
2023/07/24 07:44:50;;;;;;;15.07;11.30;;;;;;;;;;5026691;28;20509;-59
2023/07/24 07:47:17;;;;;;;12.63;11.10;;;;;;;;;;5031697;28;21047;-60
2023/07/24 07:49:45;;;;;;;11.60;10.40;;;;;;;;;;5032981;28;20446;-59
2023/07/24 07:52:12;;;;;;;12.17;10.70;;;;;;;;;;5033315;28;20528;-60
2023/07/24 07:54:39;;;;;;;12.17;9.80;;;;;;;;;;5032523;28;20462;-58
2023/07/24 07:57:07;;;;;;;13.10;10.67;;;;;;;;;;5032902;28;20477;-60
2023/07/24 07:59:35;;;;;;;14.50;11.20;;;;;;;;;;5032927;28;20528;-60
2023/07/24 08:02:03;;;;;;;18.00;11.40;;;;;;;;;;5033540;28;20798;-60
2023/07/24 08:04:30;;;;;;;14.80;11.30;;;;;;;;;;5033172;28;20549;-59
2023/07/24 08:06:58;;;;;;;15.27;10.63;;;;;;;;;;5033408;28;20569;-59
2023/07/24 08:09:25;;;;;;;12.00;10.53;;;;;;;;;;5033110;28;20950;-60
2023/07/24 08:11:52;;;;;;;16.10;10.47;;;;;;;;;;5033431;28;20525;-59
2023/07/24 08:14:20;;;;;;;11.13;10.00;;;;;;;;;;5033385;28;20898;-59
2023/07/24 08:16:49;;;;;;;14.10;11.13;;;;;;;;;;5033119;28;20525;-59
2023/07/24 08:19:18;;;;;;;13.90;11.53;;;;;;;;;;5032336;28;20532;-58
2023/07/24 08:21:45;;;;;;;14.43;11.03;;;;;;;;;;5031992;28;20485;-58
2023/07/24 08:24:12;;;;;;;13.80;10.83;;;;;;;;;;5032400;28;20478;-57
2023/07/24 08:26:40;;;;;;;15.90;12.00;;;;;;;;;;5027744;28;20557;-58
2023/07/24 08:29:07;;;;;;;13.03;11.00;;;;;;;;;;5027506;28;20486;-58
2023/07/24 08:31:34;;;;;;;14.73;12.00;;;;;;;;;;5017874;28;20542;-58
2023/07/24 08:34:01;;;;;;;12.83;11.43;;;;;;;;;;5011867;28;20971;-58
2023/07/24 08:36:30;;;;;;;14.67;12.33;;;;;;;;;;5025549;28;20531;-58
2023/07/24 08:38:57;;;;;;;26.30;18.77;;;;;;;;;;5031206;28;20462;-57
2023/07/24 08:41:25;;;;;;;22.53;18.30;;;;;;;;;;5031599;28;20496;-58
2023/07/24 08:43:53;;;;;;;22.33;17.53;;;;;;;;;;5031507;28;20552;-58
2023/07/24 08:46:21;;;;;;;15.60;11.87;;;;;;;;;;5025368;28;20477;-57
2023/07/24 08:48:48;;;;;;;13.77;11.73;;;;;;;;;;5028192;28;20534;-56
2023/07/24 08:51:18;;;;;;;14.07;11.83;;;;;;;;;;5024201;28;20544;-59
2023/07/24 08:53:47;;;;;;;13.20;11.10;;;;;;;;;;5027205;28;20497;-58
2023/07/24 08:56:15;;;;;;;17.73;13.07;;;;;;;;;;5026618;28;20545;-58
2023/07/24 08:58:42;;;;;;;15.03;10.07;;;;;;;;;;5029053;28;20848;-59
2023/07/24 09:01:10;;;;;;;13.00;10.13;;;;;;;;;;5026943;28;20455;-58
2023/07/24 09:03:37;;;;;;;13.87;10.13;;;;;;;;;;5029728;28;20497;-58
2023/07/24 09:06:07;;;;;;;11.00;6.87;;;;;;;;;;5030046;28;20505;-58
2023/07/24 09:08:35;;;;;;;10.40;6.63;;;;;;;;;;5029981;28;20446;-59
2023/07/24 09:11:04;;;;;;;7.93;5.13;;;;;;;;;;5030875;28;20935;-58
2023/07/24 09:13:31;;;;;;;6.27;5.00;;;;;;;;;;5027132;28;20561;-56
2023/07/24 09:15:59;;;;;;;8.30;4.87;;;;;;;;;;5030314;28;20490;-59
2023/07/24 09:18:27;;;;;;;7.37;5.90;;;;;;;;;;5029837;28;20489;-57
2023/07/24 09:20:54;;;;;;;6.67;4.87;;;;;;;;;;5029915;28;20534;-59
2023/07/24 09:23:27;;;;;;;5.20;4.17;;;;;;;;;;5029683;28;20553;-57
2023/07/24 09:25:55;;;;;;;6.23;4.63;;;;;;;;;;5023056;28;20761;-58
2023/07/24 09:28:23;;;;;;;5.23;4.73;;;;;;;;;;5030737;28;20474;-59
2023/07/24 09:30:54;;;;;;;7.07;4.90;;;;;;;;;;5028970;28;20986;-59
2023/07/24 09:33:22;;;;;;;6.47;4.43;;;;;;;;;;5029357;28;20509;-59
2023/07/24 09:35:58;;;;;;;6.10;5.27;;;;;;;;;;5028291;28;20486;-59
2023/07/24 09:38:26;;;;;;;6.30;4.80;;;;;;;;;;5030409;28;20814;-60
2023/07/24 09:40:55;;;;;;;6.63;5.40;;;;;;;;;;5030336;28;20521;-60
2023/07/24 09:43:25;;;;;;;7.17;4.93;;;;;;;;;;5028829;28;20549;-60
2023/07/24 09:45:53;;;;;;;7.37;5.13;;;;;;;;;;5030512;28;20501;-60
2023/07/24 09:48:21;;;;;;;7.70;5.90;;;;;;;;;;5023281;28;20541;-58
2023/07/24 09:50:49;;;;;;;5.53;4.93;;;;;;;;;;5027519;28;21065;-59
2023/07/24 09:53:19;;;;;;;6.83;4.90;;;;;;;;;;5030720;28;20473;-59
2023/07/24 09:55:51;;;;;;;7.60;5.60;;;;;;;;;;5029444;28;20478;-59
2023/07/24 09:58:19;;;;;;;7.40;4.80;;;;;;;;;;5029754;28;20535;-57
2023/07/24 10:00:50;;;;;;;6.87;5.47;;;;;;;;;;5024535;28;20546;-60
2023/07/24 10:03:17;;;;;;;8.10;4.77;;;;;;;;;;5029185;28;20528;-61
2023/07/24 10:05:45;;;;;;;7.40;6.30;;;;;;;;;;5028880;28;20481;-60
2023/07/24 10:08:13;;;;;;;9.30;6.97;;;;;;;;;;5028391;28;20557;-62
2023/07/24 10:10:40;;;;;;;7.30;5.13;;;;;;;;;;5027057;28;20474;-61
2023/07/24 10:13:10;;;;;;;7.97;6.17;;;;;;;;;;5027622;28;20927;-59
2023/07/24 10:15:38;;;;;;;7.13;5.60;;;;;;;;;;5025095;28;20451;-59
2023/07/24 10:18:07;;;;;;;6.37;4.47;;;;;;;;;;5028490;28;20899;-60
2023/07/24 10:20:35;;;;;;;5.33;4.67;;;;;;;;;;5028448;28;20504;-59
2023/07/24 10:23:03;;;;;;;6.47;4.60;;;;;;;;;;5028361;28;20490;-58
2023/07/24 10:25:32;;;;;;;8.17;5.00;;;;;;;;;;5024366;28;20465;-61
2023/07/24 10:28:05;;;;;;;6.83;4.97;;;;;;;;;;5027619;28;20484;-60
2023/07/24 10:30:32;;;;;;;6.50;5.40;;;;;;;;;;5027266;28;20466;-60
2023/07/24 10:33:07;;;;;;;6.43;4.53;;;;;;;;;;5028647;28;20478;-61
2023/07/24 10:35:41;;;;;;;7.30;4.83;;;;;;;;;;5028276;28;20465;-61
2023/07/24 10:38:08;;;;;;;6.80;4.80;;;;;;;;;;5025914;28;20493;-61
2023/07/24 10:40:35;;;;;;;6.87;6.00;;;;;;;;;;5028088;28;20508;-60
2023/07/24 10:43:06;;;;;;;8.17;5.70;;;;;;;;;;5025297;28;21049;-60
2023/07/24 10:45:43;;;;;;;7.00;5.90;;;;;;;;;;5026516;28;20461;-60
2023/07/24 10:48:12;;;;;;;8.43;6.10;;;;;;;;;;5027242;28;20501;-60
2023/07/24 10:50:43;;;;;;;7.83;6.37;;;;;;;;;;5026230;28;20542;-60
2023/07/24 10:53:10;;;;;;;7.83;5.67;;;;;;;;;;5026210;28;20716;-58
2023/07/24 10:55:37;;;;;;;10.13;8.30;;;;;;;;;;5026558;28;20473;-60
2023/07/24 10:58:05;;;;;;;10.43;8.77;;;;;;;;;;5027255;28;20470;-59
2023/07/24 11:00:32;;;;;;;11.20;8.33;;;;;;;;;;5028095;28;20974;-59
2023/07/24 11:02:59;;;;;;;10.10;8.10;;;;;;;;;;5027357;28;20481;-59
2023/07/24 11:05:28;;;;;;;11.30;9.07;;;;;;;;;;5029325;28;20446;-59
2023/07/24 11:07:56;;;;;;;12.50;10.87;;;;;;;;;;5028260;28;20513;-60
2023/07/24 11:10:24;;;;;;;12.80;9.67;;;;;;;;;;5027359;28;20529;-60
2023/07/24 11:12:51;;;;;;;12.50;10.43;;;;;;;;;;5020639;28;20504;-60
2023/07/24 11:15:25;;;;;;;11.03;9.83;;;;;;;;;;5027872;28;20446;-60
2023/07/24 11:17:53;;;;;;;11.40;9.47;;;;;;;;;;5027944;28;20464;-58
2023/07/24 11:20:20;;;;;;;11.43;10.00;;;;;;;;;;5028579;28;20481;-60
2023/07/24 11:22:49;;;;;;;11.00;9.90;;;;;;;;;;5030195;28;20485;-60
2023/07/24 11:25:16;;;;;;;12.13;10.83;;;;;;;;;;5077422;23;20525;-86
2023/07/24 11:27:44;;;;;;;10.73;9.63;;;;;;;;;;5056131;28;20485;-86
2023/07/24 11:30:12;;;;;;;14.83;10.30;;;;;;;;;;5055357;28;20481;-86
2023/07/24 11:32:40;;;;;;;12.00;10.53;;;;;;;;;;5079251;28;20481;-86
2023/07/24 11:35:09;;;;;;;12.07;10.30;;;;;;;;;;5056753;28;20816;-87
2023/07/24 11:40:09;;;;;;;11.87;9.90;;;;;;;;;;4989988;28;20984;-55
2023/07/24 11:42:40;;;;;;;12.77;10.60;;;;;;;;;;4992314;28;20478;-56
2023/07/24 11:45:10;;;;;;;11.93;9.93;;;;;;;;;;4976248;28;20996;-55
2023/07/24 11:47:44;;;;;;;15.80;10.10;;;;;;;;;;4971475;28;20576;-56
2023/07/24 11:50:11;;;;;;;10.97;9.67;;;;;;;;;;4973180;28;21012;-55
2023/07/24 11:52:43;;;;;;;14.03;10.77;;;;;;;;;;4969856;28;20524;-55
2023/07/24 11:55:12;;;;;;;11.70;9.47;;;;;;;;;;4975584;28;20479;-55
2023/07/24 11:57:39;;;;;;;11.47;9.67;;;;;;;;;;4972207;28;20532;-55
2023/07/24 12:00:08;;;;;;;14.30;10.87;;;;;;;;;;4972933;28;20544;-55
2023/07/24 12:02:35;;;;;;;11.20;9.33;;;;;;;;;;4973304;28;20535;-55
2023/07/24 12:05:03;;;;;;;10.23;9.17;;;;;;;;;;4977086;28;20528;-55
2023/07/24 12:07:31;;;;;;;13.73;10.80;;;;;;;;;;4970014;28;20508;-55
2023/07/24 12:09:58;;;;;;;12.00;9.20;;;;;;;;;;4969084;28;20455;-55
2023/07/24 12:12:27;;;;;;;14.37;9.77;;;;;;;;;;4972372;28;20469;-55
2023/07/24 12:14:54;;;;;;;14.17;10.87;;;;;;;;;;4972881;28;20560;-55
2023/07/24 12:17:21;;;;;;;12.37;9.80;;;;;;;;;;4972263;28;20911;-56
2023/07/24 12:19:49;;;;;;;11.53;10.23;;;;;;;;;;4971062;28;20547;-55
2023/07/24 12:22:18;;;;;;;12.00;10.70;;;;;;;;;;4972391;28;20449;-55
2023/07/24 12:24:45;;;;;;;12.80;10.90;;;;;;;;;;4971933;28;20473;-55
2023/07/24 12:27:12;;;;;;;13.07;10.43;;;;;;;;;;4972170;28;20508;-55
2023/07/24 12:29:41;;;;;;;12.00;10.73;;;;;;;;;;4972077;28;20520;-55
2023/07/24 12:32:08;;;;;;;13.27;10.00;;;;;;;;;;4965251;28;20536;-55
2023/07/24 12:34:35;;;;;;;14.83;9.43;;;;;;;;;;4972396;28;20552;-55
2023/07/24 12:37:02;;;;;;;11.63;9.47;;;;;;;;;;4972932;28;20445;-55
2023/07/24 12:39:30;;;;;;;14.43;10.57;;;;;;;;;;4972475;28;20484;-55
2023/07/24 12:41:57;;;;;;;15.50;11.67;;;;;;;;;;4966594;28;20551;-56
2023/07/24 12:44:26;;;;;;;10.63;8.57;;;;;;;;;;4974484;28;20492;-56
2023/07/24 12:46:54;;;;;;;11.47;9.50;;;;;;;;;;4971891;28;20516;-55
2023/07/24 12:49:21;;;;;;;10.20;8.80;;;;;;;;;;4971399;28;20536;-56
2023/07/24 12:51:49;;;;;;;11.43;10.20;;;;;;;;;;4971276;28;20597;-57
2023/07/24 12:54:16;;;;;;;10.77;9.30;;;;;;;;;;4966042;28;20547;-55
2023/07/24 12:56:43;;;;;;;11.80;10.20;;;;;;;;;;4971845;28;20870;-55
2023/07/24 12:59:10;;;;;;;14.37;10.50;;;;;;;;;;4972086;28;20976;-55
2023/07/24 13:01:38;;;;;;;11.00;9.07;;;;;;;;;;4972485;28;20528;-56
2023/07/24 13:04:06;;;;;;;10.40;9.10;;;;;;;;;;4970783;28;20501;-55
2023/07/24 13:06:34;;;;;;;14.30;9.27;;;;;;;;;;4969335;28;20511;-54
2023/07/24 13:09:01;;;;;;;10.27;8.80;;;;;;;;;;4972125;28;20490;-56
2023/07/24 13:11:28;;;;;;;11.67;9.80;;;;;;;;;;4972124;28;20997;-56
2023/07/24 13:13:56;;;;;;;10.07;8.50;;;;;;;;;;4972397;28;20469;-56
2023/07/24 13:16:23;;;;;;;11.73;9.03;;;;;;;;;;4971802;28;20544;-56
2023/07/24 13:18:50;;;;;;;10.87;9.00;;;;;;;;;;4970443;28;20524;-56
2023/07/24 13:21:19;;;;;;;10.07;8.37;;;;;;;;;;4971882;28;20532;-56
2023/07/24 13:23:46;;;;;;;12.20;9.57;;;;;;;;;;4971776;28;20492;-56
2023/07/24 13:26:14;;;;;;;12.20;8.90;;;;;;;;;;4972623;28;20448;-55
2023/07/24 13:28:41;;;;;;;9.37;7.50;;;;;;;;;;4971806;28;20955;-55
2023/07/24 13:31:15;;;;;;;10.43;8.67;;;;;;;;;;4965457;28;20903;-55
2023/07/24 13:33:43;;;;;;;12.20;8.17;;;;;;;;;;4968031;28;20830;-55
2023/07/24 13:36:10;;;;;;;10.00;7.50;;;;;;;;;;4972185;28;20469;-55
2023/07/24 13:38:38;;;;;;;7.20;6.40;;;;;;;;;;4965015;28;20552;-55
2023/07/24 13:41:06;;;;;;;10.00;6.60;;;;;;;;;;4971463;28;20540;-55
2023/07/24 13:43:33;;;;;;;7.83;5.53;;;;;;;;;;4971067;28;20547;-56
2023/07/24 13:46:02;;;;;;;6.90;5.77;;;;;;;;;;4971924;28;20538;-56
2023/07/24 13:48:29;;;;;;;7.23;5.20;;;;;;;;;;4971406;28;21032;-55
2023/07/24 13:50:56;;;;;;;5.10;4.17;;;;;;;;;;4971419;28;20503;-54
2023/07/24 13:53:24;;;;;;;7.17;4.70;;;;;;;;;;4971553;28;20953;-54
2023/07/24 13:55:53;;;;;;;5.57;3.33;;;;;;;;;;4971853;28;20515;-54
2023/07/24 13:58:20;;;;;;;5.00;3.27;;;;;;;;;;4970530;28;20473;-53
2023/07/24 14:00:47;;;;;;;6.80;5.07;;;;;;;;;;4966720;28;20536;-54
2023/07/24 14:03:14;;;;;;;7.80;5.23;;;;;;;;;;4967251;28;20609;-54
2023/07/24 14:05:41;;;;;;;5.80;3.90;;;;;;;;;;4970050;28;20516;-55
2023/07/24 14:08:09;;;;;;;5.70;4.00;;;;;;;;;;4970456;28;21031;-55
2023/07/24 14:10:36;;;;;;;5.80;3.40;;;;;;;;;;4971398;28;20473;-55
2023/07/24 14:13:05;;;;;;;6.47;3.83;;;;;;;;;;4969301;28;20551;-53
2023/07/24 14:15:32;;;;;;;6.30;4.07;;;;;;;;;;4965975;28;20496;-54
2023/07/24 14:17:59;;;;;;;6.60;3.93;;;;;;;;;;4971507;28;20933;-53
2023/07/24 14:20:27;;;;;;;6.50;3.63;;;;;;;;;;4969009;28;20488;-53
2023/07/24 14:22:54;;;;;;;4.33;3.13;;;;;;;;;;4968722;28;20527;-54
2023/07/24 14:25:21;;;;;;;5.43;3.50;;;;;;;;;;4970876;28;20841;-54
2023/07/24 14:27:48;;;;;;;5.30;3.70;;;;;;;;;;4971508;28;20924;-53
2023/07/24 14:30:17;;;;;;;5.00;2.90;;;;;;;;;;4970542;28;20481;-54
2023/07/24 14:32:44;;;;;;;6.27;3.80;;;;;;;;;;4973688;28;20777;-54
2023/07/24 14:35:13;;;;;;;4.57;3.20;;;;;;;;;;4968707;28;20977;-54